Time;durP1;ratioP1;P1;durP2;ratioP2;P2;SDS_P1;SDS_P2;PMS_P1;PMS_P2;Temp;Humidity;BMP_temperature;BMP_pressure;BME280_temperature;BME280_humidity;BME280_pressure;Samples;Min_cycle;Max_cycle;Signal;HPM_P1;HPM_P2
2021/12/22 00:01:55;;;;;;;20.90;14.47;;;;;;;-5.11;100.00;99043.41;5056965;28;20728;-71
2021/12/22 00:04:25;;;;;;;20.87;14.37;;;;;;;-5.03;100.00;99036.56;5058759;28;20217;-71
2021/12/22 00:06:52;;;;;;;24.57;15.37;;;;;;;-4.99;100.00;99032.28;5066209;28;20215;-71
2021/12/22 00:09:19;;;;;;;23.93;15.17;;;;;;;-5.08;100.00;99027.94;5057169;28;20220;-71
2021/12/22 00:11:45;;;;;;;21.30;15.57;;;;;;;-5.12;100.00;99027.91;5057271;28;20216;-71
2021/12/22 00:14:12;;;;;;;20.30;13.17;;;;;;;-5.11;100.00;99024.47;5060427;28;20216;-71
2021/12/22 00:16:39;;;;;;;25.13;14.53;;;;;;;-5.13;100.00;99028.78;5063912;28;20207;-71
2021/12/22 00:19:05;;;;;;;24.27;14.63;;;;;;;-5.17;100.00;99027.03;5060362;28;20212;-71
2021/12/22 00:21:33;;;;;;;22.33;14.83;;;;;;;-5.20;100.00;99027.00;5060818;28;20239;-71
2021/12/22 00:24:00;;;;;;;21.27;13.33;;;;;;;-5.21;100.00;99025.25;5062979;28;20216;-71
2021/12/22 00:26:26;;;;;;;19.83;13.57;;;;;;;-5.22;100.00;99027.00;5064191;28;20219;-71
2021/12/22 00:28:52;;;;;;;20.30;13.30;;;;;;;-5.24;100.00;99025.25;5060877;28;20218;-71
2021/12/22 00:31:21;;;;;;;19.37;13.97;;;;;;;-5.30;100.00;99023.50;5061103;28;20216;-71
2021/12/22 00:33:49;;;;;;;21.80;13.33;;;;;;;-5.28;100.00;99026.06;5059663;28;20683;-71
2021/12/22 00:36:17;;;;;;;21.90;14.53;;;;;;;-5.31;100.00;99018.34;5063725;28;20215;-71
2021/12/22 00:38:46;;;;;;;18.63;12.90;;;;;;;-5.27;100.00;99018.38;5061157;28;20510;-70
2021/12/22 00:41:13;;;;;;;22.40;14.30;;;;;;;-5.23;100.00;99019.25;5060876;28;20240;-71
2021/12/22 00:43:40;;;;;;;18.43;13.03;;;;;;;-5.31;100.00;99023.50;5062069;28;20222;-71
2021/12/22 00:46:07;;;;;;;21.20;14.67;;;;;;;-5.35;100.00;99034.63;5061737;28;20708;-71
2021/12/22 00:48:33;;;;;;;18.20;13.37;;;;;;;-5.33;100.00;99028.63;5060471;28;20669;-71
2021/12/22 00:51:00;;;;;;;23.67;14.60;;;;;;;-5.39;100.00;99030.28;5060539;28;20562;-71
2021/12/22 00:53:27;;;;;;;24.30;14.50;;;;;;;-5.42;100.00;99031.16;5059034;28;20212;-71
2021/12/22 00:55:55;;;;;;;19.80;12.60;;;;;;;-5.40;100.00;99033.72;5063934;28;20238;-71
2021/12/22 00:58:21;;;;;;;22.63;13.60;;;;;;;-5.45;100.00;99040.56;5060604;28;20216;-71
2021/12/22 01:00:49;;;;;;;25.73;16.10;;;;;;;-5.54;100.00;99036.22;5060571;28;20255;-72
2021/12/22 01:03:16;;;;;;;24.53;14.73;;;;;;;-5.52;100.00;99034.50;5058864;28;20215;-71
2021/12/22 01:05:42;;;;;;;20.67;14.17;;;;;;;-5.48;100.00;99030.22;5061649;28;20712;-71
2021/12/22 01:08:09;;;;;;;20.47;14.33;;;;;;;-5.54;100.00;99031.06;5055636;28;20212;-71
2021/12/22 01:10:36;;;;;;;25.77;14.47;;;;;;;-5.57;100.00;99035.31;5060470;28;20243;-71
2021/12/22 01:13:07;;;;;;;26.93;16.90;;;;;;;-5.58;100.00;99031.00;5059251;28;20216;-71
2021/12/22 01:15:35;;;;;;;22.80;14.60;;;;;;;-5.54;100.00;99028.47;5063459;28;20295;-71
2021/12/22 01:18:09;;;;;;;20.37;13.57;;;;;;;-5.52;100.00;99028.47;5060319;28;20215;-71
2021/12/22 01:20:49;;;;;;;20.47;13.87;;;;;;;-5.54;100.00;99035.34;5060080;28;20285;-71
2021/12/22 01:23:15;;;;;;;24.07;15.50;;;;;;;-5.61;100.00;99038.72;5054257;28;20215;-71
2021/12/22 01:25:44;;;;;;;24.87;16.27;;;;;;;-5.59;100.00;99037.88;5059678;28;20216;-71
2021/12/22 01:28:13;;;;;;;25.17;15.20;;;;;;;-5.60;100.00;99045.59;5059837;28;20220;-71
2021/12/22 01:30:44;;;;;;;25.07;14.37;;;;;;;-5.60;100.00;99045.59;5059827;28;20216;-71
2021/12/22 01:33:12;;;;;;;21.80;14.10;;;;;;;-5.65;100.00;99044.69;5055388;28;20765;-71
2021/12/22 01:35:39;;;;;;;22.13;14.43;;;;;;;-5.65;100.00;99037.81;5051031;28;20227;-71
2021/12/22 01:38:06;;;;;;;19.23;13.33;;;;;;;-5.64;100.00;99036.97;5057770;28;20666;-71
2021/12/22 01:40:34;;;;;;;21.90;14.73;;;;;;;-5.60;100.00;99050.72;5059819;28;20222;-71
2021/12/22 01:43:02;;;;;;;23.47;15.57;;;;;;;-5.66;100.00;99045.53;5063556;28;20212;-71
2021/12/22 01:46:07;;;;;;;23.80;15.87;;;;;;;-5.67;100.00;99048.97;5051284;28;20309;-71
2021/12/22 01:51:26;;;;;;;25.63;15.00;;;;;;;-5.71;100.00;99047.19;5051088;28;20238;-71
2021/12/22 01:53:59;;;;;;;28.40;15.13;;;;;;;-5.67;100.00;99054.09;5059726;28;20215;-71
2021/12/22 01:56:27;;;;;;;25.50;16.53;;;;;;;-5.64;100.00;99048.97;5058781;28;20219;-71
2021/12/22 01:58:56;;;;;;;27.57;15.13;;;;;;;-5.61;100.00;99043.88;5062215;28;20215;-71
2021/12/22 02:01:26;;;;;;;24.00;15.27;;;;;;;-5.69;100.00;99037.78;5059354;28;20243;-71
2021/12/22 02:03:53;;;;;;;26.07;16.03;;;;;;;-5.72;100.00;99040.31;5058991;28;20232;-71
2021/12/22 02:06:21;;;;;;;24.97;15.90;;;;;;;-5.73;100.00;99038.59;5060114;28;20220;-71
2021/12/22 02:08:49;;;;;;;24.13;15.23;;;;;;;-5.70;100.00;99042.06;5059620;28;20207;-71
2021/12/22 02:11:18;;;;;;;24.77;15.60;;;;;;;-5.74;100.00;99047.19;5059070;28;20208;-70
2021/12/22 02:13:49;;;;;;;29.87;17.43;;;;;;;-5.75;100.00;99053.19;5059135;28;20294;-71
2021/12/22 02:16:17;;;;;;;25.13;15.47;;;;;;;-5.69;100.00;99050.66;5061887;28;20223;-71
2021/12/22 02:18:48;;;;;;;24.43;16.23;;;;;;;-5.69;100.00;99055.81;5060178;28;20269;-71
2021/12/22 02:21:17;;;;;;;25.30;15.73;;;;;;;-5.73;100.00;99048.91;5059063;28;20243;-71
2021/12/22 02:23:44;;;;;;;24.80;16.57;;;;;;;-5.67;100.00;99048.97;5058959;28;20212;-71
2021/12/22 02:26:15;;;;;;;24.97;15.80;;;;;;;-5.68;100.00;99052.38;5062512;28;20215;-70
2021/12/22 02:28:45;;;;;;;23.57;15.03;;;;;;;-5.60;100.00;99050.72;5058996;28;20216;-71
2021/12/22 02:31:15;;;;;;;22.63;14.67;;;;;;;-5.60;100.00;99050.72;5056956;28;20274;-71
2021/12/22 02:33:45;;;;;;;24.47;14.93;;;;;;;-5.59;100.00;99057.59;5059415;28;20220;-70
2021/12/22 02:36:22;;;;;;;21.50;15.00;;;;;;;-5.60;100.00;99049.03;5061799;28;20241;-71
2021/12/22 02:38:52;;;;;;;22.03;14.23;;;;;;;-5.63;100.00;99050.72;5059013;28;20229;-71
2021/12/22 02:41:21;;;;;;;22.30;14.17;;;;;;;-5.66;100.00;99054.13;5058412;28;20263;-71
2021/12/22 02:43:50;;;;;;;22.60;14.47;;;;;;;-5.64;100.00;99054.13;5060995;28;20229;-71
2021/12/22 02:46:19;;;;;;;23.90;14.70;;;;;;;-5.69;100.00;99045.53;5059958;28;20298;-71
2021/12/22 02:48:47;;;;;;;20.80;14.03;;;;;;;-5.77;100.00;99044.56;5058246;28;20688;-71
2021/12/22 02:51:14;;;;;;;19.80;12.73;;;;;;;-5.80;100.00;99044.59;5058111;28;20670;-71
2021/12/22 02:53:44;;;;;;;22.20;15.00;;;;;;;-5.88;100.00;99046.19;5061651;28;20583;-71
2021/12/22 02:56:26;;;;;;;22.50;14.20;;;;;;;-5.86;100.00;99037.66;5058618;28;20216;-71
2021/12/22 02:59:02;;;;;;;24.23;15.70;;;;;;;-5.88;100.00;99051.34;5057485;28;20224;-71
2021/12/22 03:01:53;;;;;;;33.63;17.13;;;;;;;-5.86;100.00;99052.25;5061111;28;20268;-71
2021/12/22 03:04:24;;;;;;;22.03;14.73;;;;;;;-5.89;100.00;99039.34;5050937;28;20619;-71
2021/12/22 03:06:55;;;;;;;22.90;13.67;;;;;;;-5.89;100.00;99039.34;5057765;28;20248;-71
2021/12/22 03:09:24;;;;;;;19.60;13.73;;;;;;;-5.95;100.00;99041.84;5056558;28;20220;-71
2021/12/22 03:11:54;;;;;;;22.00;13.23;;;;;;;-6.00;100.00;99044.38;5058929;28;20219;-70
2021/12/22 03:14:22;;;;;;;20.60;13.67;;;;;;;-6.06;100.00;99040.88;5058138;28;20238;-70
2021/12/22 03:16:49;;;;;;;22.57;15.17;;;;;;;-6.17;100.00;99034.78;5057928;28;20216;-70
2021/12/22 03:19:18;;;;;;;21.80;14.50;;;;;;;-6.11;100.00;99029.69;5061608;28;20211;-70
2021/12/22 03:21:46;;;;;;;23.60;15.53;;;;;;;-6.10;100.00;99031.44;5058434;28;20243;-70
2021/12/22 03:24:14;;;;;;;24.70;15.23;;;;;;;-6.05;100.00;99032.34;5056294;28;20218;-70
2021/12/22 03:26:43;;;;;;;26.47;16.33;;;;;;;-6.04;100.00;99040.03;5057446;28;20678;-71
2021/12/22 03:29:13;;;;;;;22.83;14.53;;;;;;;-6.01;100.00;99041.78;5052854;28;20215;-71
2021/12/22 03:31:40;;;;;;;25.40;15.37;;;;;;;-5.99;100.00;99034.97;5048898;28;20220;-71
2021/12/22 03:34:07;;;;;;;22.27;14.77;;;;;;;-5.99;100.00;99040.13;5057640;28;20213;-71
2021/12/22 03:36:34;;;;;;;24.43;14.53;;;;;;;-5.89;100.00;99047.06;5057373;28;20228;-70
2021/12/22 03:39:00;;;;;;;22.50;14.50;;;;;;;-5.85;100.00;99059.13;5061393;28;20294;-70
2021/12/22 03:41:27;;;;;;;24.33;14.50;;;;;;;-5.89;100.00;99052.22;5057475;28;20720;-71
2021/12/22 03:43:54;;;;;;;23.00;13.73;;;;;;;-5.88;100.00;99064.22;5057289;28;20641;-71
2021/12/22 03:46:22;;;;;;;23.87;14.30;;;;;;;-5.98;100.00;99057.28;5057582;28;20219;-71
2021/12/22 03:48:48;;;;;;;20.93;13.57;;;;;;;-5.94;100.00;99053.88;5051419;28;20637;-70
2021/12/22 03:51:15;;;;;;;25.10;13.90;;;;;;;-5.98;100.00;99063.28;5056689;28;20220;-70
2021/12/22 03:53:42;;;;;;;23.67;13.57;;;;;;;-5.99;100.00;99063.28;5057446;28;20219;-70
2021/12/22 03:56:08;;;;;;;19.30;12.70;;;;;;;-6.02;100.00;99061.53;5057492;28;20212;-70
2021/12/22 03:58:35;;;;;;;20.97;12.83;;;;;;;-5.99;100.00;99065.84;5060769;28;20207;-70
2021/12/22 04:01:01;;;;;;;21.47;13.07;;;;;;;-5.99;100.00;99071.00;5058418;28;20215;-70
2021/12/22 04:03:32;;;;;;;19.83;13.30;;;;;;;-6.01;100.00;99072.66;5056973;28;20732;-71
2021/12/22 04:05:59;;;;;;;25.97;15.37;;;;;;;-6.05;100.00;99070.94;5057272;28;20222;-71
2021/12/22 04:08:26;;;;;;;21.67;13.90;;;;;;;-6.05;100.00;99070.94;5059494;28;20310;-70
2021/12/22 04:10:53;;;;;;;24.27;14.73;;;;;;;-6.11;100.00;99061.41;5057881;28;20948;-70
2021/12/22 04:13:20;;;;;;;23.27;14.67;;;;;;;-6.07;100.00;99057.16;5057191;28;20211;-70
2021/12/22 04:15:47;;;;;;;24.43;14.93;;;;;;;-6.13;100.00;99059.66;5055564;28;20212;-71
2021/12/22 04:18:13;;;;;;;21.93;13.53;;;;;;;-6.09;100.00;99053.72;5060064;28;20211;-70
2021/12/22 04:20:42;;;;;;;21.60;12.97;;;;;;;-6.12;100.00;99051.13;5058292;28;20219;-70
2021/12/22 04:23:09;;;;;;;18.07;12.43;;;;;;;-6.22;100.00;99051.88;5057107;28;20244;-70
2021/12/22 04:25:37;;;;;;;19.10;12.60;;;;;;;-6.23;100.00;99050.16;5057122;28;20223;-70
2021/12/22 04:28:08;;;;;;;20.17;13.53;;;;;;;-6.30;100.00;99048.38;5059878;28;20693;-70
2021/12/22 04:30:37;;;;;;;16.80;12.57;;;;;;;-6.30;100.00;99053.50;5057786;28;20212;-70
2021/12/22 04:33:04;;;;;;;21.57;12.87;;;;;;;-6.33;100.00;99048.31;5056985;28;20219;-70
2021/12/22 04:35:31;;;;;;;18.33;12.33;;;;;;;-6.30;100.00;99049.22;5057120;28;20517;-70
2021/12/22 04:37:59;;;;;;;21.27;12.43;;;;;;;-6.29;100.00;99055.22;5060714;28;20212;-70
2021/12/22 04:40:26;;;;;;;18.60;11.83;;;;;;;-6.36;100.00;99044.00;5057383;28;20676;-70
2021/12/22 04:42:52;;;;;;;21.20;12.97;;;;;;;-6.35;100.00;99039.72;5055393;28;20236;-70
2021/12/22 04:45:19;;;;;;;16.90;11.23;;;;;;;-6.41;100.00;99043.06;5056608;28;20244;-70
2021/12/22 04:47:47;;;;;;;20.90;12.53;;;;;;;-6.47;100.00;99039.59;5060075;28;20226;-70
2021/12/22 04:50:17;;;;;;;19.83;11.53;;;;;;;-6.46;100.00;99031.03;5057370;28;20255;-71
2021/12/22 04:52:51;;;;;;;20.33;13.00;;;;;;;-6.43;100.00;99031.91;5056684;28;20220;-70
2021/12/22 04:55:19;;;;;;;19.87;12.20;;;;;;;-6.42;100.00;99043.94;5057203;28;20212;-70
2021/12/22 04:57:45;;;;;;;22.60;13.17;;;;;;;-6.42;100.00;99030.22;5060167;28;20207;-70
2021/12/22 05:00:14;;;;;;;22.40;14.17;;;;;;;-6.50;100.00;99027.56;5057741;28;20212;-70
2021/12/22 05:02:41;;;;;;;21.10;12.17;;;;;;;-6.50;100.00;99018.97;5060452;28;20236;-70
2021/12/22 05:05:08;;;;;;;22.43;12.90;;;;;;;-6.61;100.00;99021.41;5061124;28;20220;-71
2021/12/22 05:07:35;;;;;;;19.87;12.63;;;;;;;-6.59;100.00;99018.88;5058681;28;20208;-70
2021/12/22 05:10:01;;;;;;;19.40;12.80;;;;;;;-6.61;100.00;99030.81;5059794;28;20215;-70
2021/12/22 05:12:29;;;;;;;18.07;11.80;;;;;;;-6.68;100.00;99044.44;5060179;28;20662;-70
2021/12/22 05:14:56;;;;;;;19.50;11.57;;;;;;;-6.71;100.00;99032.44;5060870;28;20287;-70
2021/12/22 05:17:27;;;;;;;17.30;11.50;;;;;;;-6.71;100.00;99029.00;5064091;28;20214;-70
2021/12/22 05:19:54;;;;;;;20.77;12.67;;;;;;;-6.82;100.00;99031.44;5051989;28;20638;-70
2021/12/22 05:22:20;;;;;;;21.10;13.53;;;;;;;-6.77;100.00;99034.06;5059936;28;20698;-70
2021/12/22 05:24:47;;;;;;;21.37;13.50;;;;;;;-6.76;100.00;99043.50;5060814;28;20215;-70
2021/12/22 05:27:13;;;;;;;18.87;12.23;;;;;;;-6.70;100.00;99035.88;5063605;28;20219;-70
2021/12/22 05:29:41;;;;;;;22.73;13.47;;;;;;;-6.64;100.00;99041.09;5069011;28;20216;-70
2021/12/22 05:32:08;;;;;;;23.17;12.90;;;;;;;-6.59;100.00;99034.31;5060015;28;20238;-70
2021/12/22 05:34:35;;;;;;;20.87;11.87;;;;;;;-6.57;100.00;99042.88;5058248;28;20669;-70
2021/12/22 05:37:01;;;;;;;22.13;13.57;;;;;;;-6.56;100.00;99042.03;5063788;28;20207;-70
2021/12/22 05:39:28;;;;;;;22.03;13.83;;;;;;;-6.52;100.00;99046.38;5060175;28;20216;-70
2021/12/22 05:41:55;;;;;;;22.07;13.00;;;;;;;-6.43;100.00;99046.47;5059783;28;20216;-70
2021/12/22 05:44:22;;;;;;;17.93;11.50;;;;;;;-6.37;100.00;99049.13;5059429;28;20676;-70
2021/12/22 05:46:50;;;;;;;20.97;13.67;;;;;;;-6.44;100.00;99047.31;5054193;28;20221;-70
2021/12/22 05:49:16;;;;;;;23.00;13.57;;;;;;;-6.49;100.00;99048.97;5060087;28;20226;-70
2021/12/22 05:51:43;;;;;;;17.47;12.20;;;;;;;-6.48;100.00;99053.28;5059686;28;20227;-70
2021/12/22 05:54:09;;;;;;;19.33;12.63;;;;;;;-6.45;100.00;99053.31;5059249;28;20689;-70
2021/12/22 05:56:36;;;;;;;19.10;12.87;;;;;;;-6.48;100.00;99053.28;5062831;28;20215;-70
2021/12/22 05:59:02;;;;;;;22.27;13.80;;;;;;;-6.58;100.00;99061.72;5060264;28;20222;-70
2021/12/22 06:01:30;;;;;;;23.00;14.23;;;;;;;-6.52;100.00;99056.66;5057927;28;20216;-71
2021/12/22 06:03:59;;;;;;;19.93;13.13;;;;;;;-6.44;100.00;99060.19;5059440;28;20247;-70
2021/12/22 06:06:26;;;;;;;17.93;12.53;;;;;;;-6.44;100.00;99057.59;5062863;28;20219;-70
2021/12/22 06:08:52;;;;;;;21.77;12.97;;;;;;;-6.42;100.00;99053.38;5059535;28;20216;-70
2021/12/22 06:11:19;;;;;;;25.70;13.23;;;;;;;-6.49;100.00;99054.13;5058582;28;20215;-70
2021/12/22 06:13:46;;;;;;;23.77;14.33;;;;;;;-6.58;100.00;99051.44;5059030;28;20216;-70
2021/12/22 06:16:12;;;;;;;22.33;13.70;;;;;;;-6.57;100.00;99051.47;5061861;28;20653;-70
2021/12/22 06:18:43;;;;;;;19.93;12.73;;;;;;;-6.57;100.00;99048.03;5060294;28;20215;-70
2021/12/22 06:21:12;;;;;;;19.23;13.03;;;;;;;-6.60;100.00;99055.72;5058880;28;20220;-70
2021/12/22 06:23:39;;;;;;;20.17;13.40;;;;;;;-6.69;100.00;99053.88;5058681;28;20239;-70
2021/12/22 06:26:06;;;;;;;21.20;12.33;;;;;;;-6.74;100.00;99049.50;5062208;28;20211;-70
2021/12/22 06:28:33;;;;;;;21.10;12.50;;;;;;;-6.82;100.00;99052.00;5057937;28;20220;-70
2021/12/22 06:30:59;;;;;;;20.53;11.97;;;;;;;-6.77;100.00;99054.63;5058855;28;20215;-70
2021/12/22 06:33:26;;;;;;;19.17;12.53;;;;;;;-6.85;100.00;99056.25;5058822;28;20212;-70
2021/12/22 06:35:52;;;;;;;17.60;11.73;;;;;;;-6.82;100.00;99051.13;5061321;28;20215;-70
2021/12/22 06:38:20;;;;;;;19.17;12.03;;;;;;;-6.80;100.00;99059.72;5059940;28;20665;-70
2021/12/22 06:40:47;;;;;;;16.20;11.67;;;;;;;-6.84;100.00;99061.38;5058497;28;20222;-70
2021/12/22 06:43:15;;;;;;;18.87;12.37;;;;;;;-6.85;100.00;99058.81;5058580;28;20244;-70
2021/12/22 06:45:42;;;;;;;20.23;12.33;;;;;;;-6.97;100.00;99052.63;5061723;28;20239;-70
2021/12/22 06:48:08;;;;;;;18.83;11.80;;;;;;;-7.03;100.00;99056.84;5060101;28;20581;-70
2021/12/22 06:50:35;;;;;;;17.03;10.97;;;;;;;-7.03;100.00;99049.13;5058464;28;20211;-70
2021/12/22 06:53:02;;;;;;;17.47;11.77;;;;;;;-7.04;100.00;99056.81;5056353;28;20708;-70
2021/12/22 06:55:30;;;;;;;18.73;12.13;;;;;;;-7.09;100.00;99055.91;5060980;28;20216;-70
2021/12/22 06:57:56;;;;;;;22.63;13.90;;;;;;;-7.07;100.00;99049.06;5060120;28;20583;-70
2021/12/22 07:00:23;;;;;;;21.73;13.20;;;;;;;-7.07;100.00;99058.47;5058291;28;20214;-70
2021/12/22 07:02:49;;;;;;;22.00;12.87;;;;;;;-7.06;100.00;99050.81;5058085;28;20238;-70
2021/12/22 07:05:16;;;;;;;20.13;13.10;;;;;;;-7.05;100.00;99052.53;5060110;28;20705;-70
2021/12/22 07:07:42;;;;;;;20.80;13.20;;;;;;;-6.94;100.00;99056.09;5055600;28;20208;-70
2021/12/22 07:10:11;;;;;;;23.67;14.67;;;;;;;-6.89;100.00;99062.19;5058205;28;20219;-70
2021/12/22 07:12:40;;;;;;;20.73;13.73;;;;;;;-6.90;100.00;99052.75;5058118;28;20220;-70
2021/12/22 07:15:09;;;;;;;23.17;14.40;;;;;;;-6.90;100.00;99053.59;5060176;28;20216;-70
2021/12/22 07:17:36;;;;;;;25.03;15.47;;;;;;;-6.80;100.00;99049.44;5059381;28;20243;-70
2021/12/22 07:20:05;;;;;;;23.73;15.47;;;;;;;-6.75;100.00;99047.78;5056363;28;20212;-70
2021/12/22 07:22:31;;;;;;;21.37;14.80;;;;;;;-6.70;100.00;99041.00;5057712;28;20243;-70
2021/12/22 07:24:58;;;;;;;23.67;14.50;;;;;;;-6.59;100.00;99063.41;5059453;28;20212;-70
2021/12/22 07:27:25;;;;;;;25.07;14.23;;;;;;;-6.57;100.00;99063.44;5059817;28;20233;-70
2021/12/22 07:29:52;;;;;;;25.80;15.10;;;;;;;-6.51;100.00;99071.25;5057710;28;20216;-70
2021/12/22 07:32:19;;;;;;;24.87;14.97;;;;;;;-6.47;100.00;99071.28;5057630;28;20215;-70
2021/12/22 07:34:52;;;;;;;23.90;15.00;;;;;;;-6.41;100.00;99078.22;5059509;28;20222;-70
2021/12/22 07:37:27;;;;;;;24.77;14.97;;;;;;;-6.35;100.00;99081.72;5059243;28;20219;-70
2021/12/22 07:39:54;;;;;;;23.07;15.63;;;;;;;-6.35;100.00;99078.31;5057843;28;20207;-70
2021/12/22 07:42:21;;;;;;;23.43;14.63;;;;;;;-6.32;100.00;99088.63;5057290;28;20211;-70
2021/12/22 07:44:47;;;;;;;22.77;15.20;;;;;;;-6.31;100.00;99092.91;5061580;28;20716;-70
2021/12/22 07:47:15;;;;;;;22.90;14.87;;;;;;;-6.25;100.00;99092.97;5056323;28;20212;-70
2021/12/22 07:49:42;;;;;;;22.50;13.67;;;;;;;-6.24;100.00;99090.44;5057291;28;20692;-70
2021/12/22 07:52:09;;;;;;;22.13;14.67;;;;;;;-6.18;100.00;99089.66;5057177;28;20216;-70
2021/12/22 07:54:35;;;;;;;21.87;13.87;;;;;;;-6.15;100.00;99089.69;5060640;28;20226;-70
2021/12/22 07:57:02;;;;;;;25.57;15.00;;;;;;;-6.11;100.00;99087.16;5058214;28;20665;-70
2021/12/22 07:59:28;;;;;;;23.40;15.10;;;;;;;-6.02;100.00;99096.69;5057532;28;20212;-71
2021/12/22 08:01:56;;;;;;;24.60;16.13;;;;;;;-5.99;100.00;99096.72;5057507;28;20216;-70
2021/12/22 08:04:24;;;;;;;21.37;14.77;;;;;;;-6.01;100.00;99093.25;5060284;28;20243;-70
2021/12/22 08:06:51;;;;;;;22.27;14.40;;;;;;;-5.96;100.00;99092.47;5058208;28;20208;-70
2021/12/22 08:09:17;;;;;;;25.47;14.67;;;;;;;-5.98;100.00;99093.31;5057218;28;20628;-70
2021/12/22 08:11:44;;;;;;;22.63;14.57;;;;;;;-5.94;100.00;99100.19;5055177;28;20220;-70
2021/12/22 08:14:10;;;;;;;23.23;15.33;;;;;;;-5.91;100.00;99105.38;5059750;28;20217;-70
2021/12/22 08:16:37;;;;;;;26.83;16.97;;;;;;;-5.89;100.00;99103.69;5058965;28;20214;-70
2021/12/22 08:19:03;;;;;;;25.27;15.63;;;;;;;-5.80;100.00;99098.63;5055997;28;20227;-70
2021/12/22 08:21:31;;;;;;;24.53;15.47;;;;;;;-5.71;100.00;99093.53;5054932;28;20216;-71
2021/12/22 08:23:58;;;;;;;26.20;16.40;;;;;;;-5.61;100.00;99090.22;5058916;28;20236;-72
2021/12/22 08:26:24;;;;;;;25.90;16.77;;;;;;;-5.47;100.00;99094.63;5059373;28;20211;-72
2021/12/22 08:28:51;;;;;;;25.20;16.47;;;;;;;-5.41;100.00;99094.69;5057476;28;20223;-72
2021/12/22 08:31:17;;;;;;;26.83;16.27;;;;;;;-5.38;100.00;99099.00;5057406;28;20216;-72
2021/12/22 08:33:46;;;;;;;28.23;17.60;;;;;;;-5.24;100.00;99102.53;5059181;28;20208;-73
2021/12/22 08:39:02;;;;;;;27.30;17.07;;;;;;;-5.16;100.00;99090.56;5059407;28;20218;-72
2021/12/22 08:41:32;;;;;;;29.37;17.10;;;;;;;-5.04;100.00;99086.38;5062010;28;20219;-72
2021/12/22 08:44:02;;;;;;;30.47;17.50;;;;;;;-4.99;100.00;99091.56;5063914;28;20262;-72
2021/12/22 08:46:30;;;;;;;28.87;18.13;;;;;;;-4.96;100.00;99083.88;5061047;28;20217;-72
2021/12/22 08:48:57;;;;;;;33.07;19.33;;;;;;;-4.82;100.00;99079.66;5060928;28;20219;-72
2021/12/22 08:51:24;;;;;;;28.53;18.43;;;;;;;-4.71;100.00;99085.75;5062605;28;20220;-72
2021/12/22 08:53:52;;;;;;;28.27;18.47;;;;;;;-4.70;100.00;99083.16;5063978;28;20223;-72
2021/12/22 08:56:20;;;;;;;33.20;19.57;;;;;;;-4.48;100.00;99071.22;5060820;28;20270;-72
2021/12/22 08:58:47;;;;;;;29.40;18.60;;;;;;;-4.35;100.00;99067.88;5061003;28;20346;-72
2021/12/22 09:01:13;;;;;;;30.13;19.17;;;;;;;-4.22;100.00;99070.47;5062097;28;20230;-72
2021/12/22 09:03:40;;;;;;;29.40;19.40;;;;;;;-4.18;100.00;99066.19;5061634;28;20242;-72
2021/12/22 09:06:06;;;;;;;30.73;19.03;;;;;;;-4.24;100.00;99068.75;5060558;28;20562;-72
2021/12/22 09:08:33;;;;;;;30.90;19.90;;;;;;;-4.10;100.00;99067.09;5056028;28;20217;-73
2021/12/22 09:11:00;;;;;;;34.57;21.37;;;;;;;-4.04;100.00;99064.53;5061514;28;20217;-72
2021/12/22 09:13:27;;;;;;;27.83;18.03;;;;;;;-4.09;100.00;99068.81;5063796;28;20231;-72
2021/12/22 09:15:54;;;;;;;30.33;20.20;;;;;;;-4.00;100.00;99061.09;5060626;28;20216;-73
2021/12/22 09:18:20;;;;;;;29.03;18.87;;;;;;;-3.96;100.00;99068.00;5060315;28;20663;-72
2021/12/22 09:20:47;;;;;;;30.60;18.47;;;;;;;-4.01;100.00;99067.09;5060942;28;20220;-72
2021/12/22 09:23:14;;;;;;;30.47;18.60;;;;;;;-3.85;100.00;99063.72;5064107;28;20277;-73
2021/12/22 09:25:40;;;;;;;29.20;18.33;;;;;;;-3.88;100.00;99068.84;5069241;28;20219;-73
2021/12/22 09:28:09;;;;;;;27.60;18.33;;;;;;;-3.90;100.00;99065.41;5060053;28;20696;-72
2021/12/22 09:30:38;;;;;;;28.77;18.27;;;;;;;-3.86;100.00;99068.00;5059110;28;20219;-72
2021/12/22 09:33:06;;;;;;;29.87;19.43;;;;;;;-3.77;100.00;99074.91;5063608;28;20263;-72
2021/12/22 09:35:33;;;;;;;33.13;18.67;;;;;;;-3.70;100.00;99063.72;5060268;28;20247;-72
2021/12/22 09:37:59;;;;;;;32.43;19.67;;;;;;;-3.63;100.00;99065.44;5059859;28;20674;-72
2021/12/22 09:40:26;;;;;;;30.53;19.10;;;;;;;-3.55;100.00;99061.19;5060421;28;20212;-72
2021/12/22 09:42:53;;;;;;;32.37;18.77;;;;;;;-3.48;100.00;99060.31;5063480;28;20220;-72
2021/12/22 09:45:23;;;;;;;29.27;19.10;;;;;;;-3.44;100.00;99051.69;5069076;28;20599;-72
2021/12/22 09:48:18;;;;;;;31.93;19.03;;;;;;;-3.36;100.00;99049.97;5058741;28;20247;-72
2021/12/22 09:50:50;;;;;;;31.33;19.93;;;;;;;-3.32;100.00;99042.22;5055875;28;20209;-72
2021/12/22 09:53:19;;;;;;;33.07;20.63;;;;;;;-3.28;100.00;99050.84;5051574;28;20244;-72
2021/12/22 09:55:46;;;;;;;30.07;19.17;;;;;;;-3.23;100.00;99047.41;5058058;28;20214;-72
2021/12/22 09:58:14;;;;;;;29.07;19.57;;;;;;;-3.18;100.00;99045.66;5058334;28;20304;-72
2021/12/22 10:00:42;;;;;;;30.17;19.80;;;;;;;-3.11;100.00;99046.53;5062548;28;20212;-72
2021/12/22 10:03:11;;;;;;;31.33;19.87;;;;;;;-3.01;100.00;99048.25;5059678;28;20249;-72
2021/12/22 10:05:39;;;;;;;31.37;19.53;;;;;;;-2.99;100.00;99047.34;5059741;28;20221;-71
2021/12/22 10:08:07;;;;;;;31.23;19.87;;;;;;;-2.97;100.00;99045.66;5060742;28;20707;-70
2021/12/22 10:10:34;;;;;;;31.40;19.90;;;;;;;-2.90;100.00;99034.41;5062154;28;20252;-70
2021/12/22 10:13:06;;;;;;;32.97;20.50;;;;;;;-2.88;100.00;99039.59;5059524;28;20223;-71
2021/12/22 10:15:35;;;;;;;34.07;21.87;;;;;;;-2.79;100.00;99032.69;5059474;28;20226;-71
2021/12/22 10:18:09;;;;;;;32.23;21.43;;;;;;;-2.78;100.00;99030.94;5061539;28;20393;-70
2021/12/22 10:20:37;;;;;;;33.53;20.17;;;;;;;-2.74;100.00;99027.47;5060162;28;20680;-71
2021/12/22 10:23:19;;;;;;;31.80;20.07;;;;;;;-2.68;100.00;99033.50;5057701;28;20214;-71
2021/12/22 10:25:51;;;;;;;31.53;20.63;;;;;;;-2.68;100.00;99023.16;5058212;28;20625;-70
2021/12/22 10:28:19;;;;;;;33.17;20.43;;;;;;;-2.60;100.00;99015.34;5061758;28;20218;-70
2021/12/22 10:30:47;;;;;;;34.33;20.67;;;;;;;-2.62;100.00;99009.34;5059196;28;20244;-71
2021/12/22 10:33:16;;;;;;;28.30;19.10;;;;;;;-2.63;100.00;98999.84;5058884;28;20210;-70
2021/12/22 10:35:47;;;;;;;33.43;20.33;;;;;;;-2.57;100.00;99005.00;5061453;28;20258;-70
2021/12/22 10:38:16;;;;;;;33.53;21.50;;;;;;;-2.52;100.00;99001.53;5060726;28;20212;-70
2021/12/22 10:40:44;;;;;;;36.07;20.80;;;;;;;-2.36;100.00;99000.59;5059045;28;20230;-69
2021/12/22 10:43:17;;;;;;;34.10;19.97;;;;;;;-2.24;100.00;99003.13;5058783;28;20214;-68
2021/12/22 10:45:46;;;;;;;33.57;20.37;;;;;;;-2.26;100.00;98994.50;5062776;28;20715;-68
2021/12/22 10:51:00;;;;;;;31.80;19.50;;;;;;;-2.10;100.00;98987.50;5057675;28;20353;-68
2021/12/22 10:53:27;;;;;;;33.03;18.57;;;;;;;-2.09;100.00;98981.47;5058916;28;20226;-69
2021/12/22 10:55:57;;;;;;;31.63;18.40;;;;;;;-2.02;100.00;98983.16;5059918;28;20702;-69
2021/12/22 10:58:27;;;;;;;30.53;18.47;;;;;;;-2.04;100.00;98972.78;5057983;28;20218;-68
2021/12/22 11:01:07;;;;;;;30.83;18.93;;;;;;;-2.08;100.00;98972.84;5058197;28;20220;-69
2021/12/22 11:03:38;;;;;;;28.80;18.85;;;;;;;-2.06;100.00;98978.84;5051508;28;20435;-69
2021/12/22 11:06:11;;;;;;;31.08;23.02;;;;;;;-1.98;100.00;98977.06;5057301;28;20432;-69
2021/12/22 11:08:38;;;;;;;29.23;22.55;;;;;;;-1.83;100.00;98969.19;5052437;28;20892;-69
2021/12/22 11:11:13;;;;;;;28.02;20.13;;;;;;;-1.77;100.00;98961.38;5059671;28;20432;-68
2021/12/22 11:13:39;;;;;;;26.40;16.37;;;;;;;-1.80;100.00;98951.03;5059281;28;20702;-69
2021/12/22 11:16:12;;;;;;;22.67;15.57;;;;;;;-1.57;100.00;98959.47;5056586;28;20596;-69
2021/12/22 11:18:38;;;;;;;24.60;16.20;;;;;;;-1.43;100.00;98944.66;5058077;28;20214;-69
2021/12/22 11:21:16;;;;;;;24.43;15.80;;;;;;;-1.59;100.00;98951.72;5061108;28;20577;-69
2021/12/22 11:23:43;;;;;;;26.03;15.73;;;;;;;-1.68;100.00;98945.75;5049626;28;20304;-69